Startpagina
METAR-TAF:

METAR-TAF

Vliegvelden :

Dharaan, Saoedi-Arabië

breedte: 26-16N, lengte: 050-09E, hoogte: 26 m

Actueel weer

Dit bericht is 22 minuten geleden gemaakt, om 03:00 UTC
Wind 5 kt uit het noordwesten
Temperatuur 14°C
Vochtigheid 72%
Druk 1010 hPa
Zicht 10 km of meer
geen wolken onder 1500 m en geen cumulonimbus

METAR: OEDR 190300Z 31005KT CAVOK 14/09 Q1010 NOSIG

Tijdstip: 06:22 (03:22 UTC)

Verwachting

Dit bericht is 6 uur en het 22 minuten geleden gemaakt, om 21:00 UTC
Verwachting geldig van 19 om 00 UTC tot 20 om 06 UTC
Wind 3 kt uit variabele richting
Zicht: 7000 m
Weinig wolken op 4000 ft
Verspreide wolken op 10000 ft
Tijdelijke
van 19 om 08 UTC tot 19 om 15 UTC
Verspreide wolken op 4000 ft
Gebroken wolken op 10000 ft
regen
Wijzigt naar
van 19 om 10 UTC tot 19 om 12 UTC
Wind 15 kt uit het noorden met uitschieters tot 25 kt

TAF: OEDR 182100Z 1900/2006 VRB03KT 7000 FEW040 SCT100 TEMPO 1908/1915 RA SCT040 BKN100 BECMG 1910/1912 35015G25KT

Waarnemingen en weersverwachtingen van meer dan 4000 vliegvelden (METAR en TAF).

De beschikbare stations zijn de gele en rode punten op de kaart.

Ga met uw muis naar het station om de naam te zien.

Klik dan om waarnemingen en weersverwachtingen te zien.

kaart wijzigen: klik op de groene knoppen met een zwart kruis om in te zoomen, op de groene knop met een streepje om uit te zoomen of op de groene pijlen voor aangrenzende kaarten.


METAR-TAF: